sim
Sign-in with your pilot id or email,
or register
Callsign
Passwort

Schedule Details

Flight Number: OEO7629
Departure: London Heathrow Airport (EGLL) at 06:15
Arrival: Munich Airport (EDDM) at 08:25

Weather Information
Getting current METAR information for EGLL 190450Z AUTO 04007KT 9999 NCD 13/11 Q1018 NOSIG
Getting current METAR information for EDDM 190450Z 32001KT CAVOK 04/03 Q1020 NOSIG

Schedule Frequency

Route Map